sensor_id;sensor_type;location;lat;lon;timestamp;temperature;humidity
16907;DHT22;8570;52.380;4.654;2022-07-29T00:02:23;17.40;97.40
16907;DHT22;8570;52.380;4.654;2022-07-29T00:07:25;17.40;97.50
16907;DHT22;8570;52.380;4.654;2022-07-29T00:12:27;17.40;97.60
16907;DHT22;8570;52.380;4.654;2022-07-29T00:17:30;17.30;97.80
16907;DHT22;8570;52.380;4.654;2022-07-29T00:22:37;17.30;97.80
16907;DHT22;8570;52.380;4.654;2022-07-29T00:27:39;17.30;98.00
16907;DHT22;8570;52.380;4.654;2022-07-29T00:32:42;17.30;98.10
16907;DHT22;8570;52.380;4.654;2022-07-29T00:37:44;17.20;98.20
16907;DHT22;8570;52.380;4.654;2022-07-29T00:42:48;17.20;98.30
16907;DHT22;8570;52.380;4.654;2022-07-29T00:47:52;17.20;98.40
16907;DHT22;8570;52.380;4.654;2022-07-29T00:52:54;17.20;98.40
16907;DHT22;8570;52.380;4.654;2022-07-29T00:57:57;17.20;98.50
16907;DHT22;8570;52.380;4.654;2022-07-29T01:03:01;17.10;98.40
16907;DHT22;8570;52.380;4.654;2022-07-29T01:08:03;17.10;98.50
16907;DHT22;8570;52.380;4.654;2022-07-29T01:13:06;17.10;98.60
16907;DHT22;8570;52.380;4.654;2022-07-29T01:18:18;17.10;98.60
16907;DHT22;8570;52.380;4.654;2022-07-29T01:23:48;17.10;98.70
16907;DHT22;8570;52.380;4.654;2022-07-29T01:29:02;17.10;98.70
16907;DHT22;8570;52.380;4.654;2022-07-29T01:34:06;17.00;98.80
16907;DHT22;8570;52.380;4.654;2022-07-29T01:39:19;17.00;98.80
16907;DHT22;8570;52.380;4.654;2022-07-29T01:44:30;17.00;98.90
16907;DHT22;8570;52.380;4.654;2022-07-29T01:49:36;17.00;98.90
16907;DHT22;8570;52.380;4.654;2022-07-29T01:54:43;16.90;99.00
16907;DHT22;8570;52.380;4.654;2022-07-29T01:59:51;16.90;99.10
16907;DHT22;8570;52.380;4.654;2022-07-29T02:04:54;16.90;99.10
16907;DHT22;8570;52.380;4.654;2022-07-29T02:09:58;16.80;99.10
16907;DHT22;8570;52.380;4.654;2022-07-29T02:15:03;16.80;99.20
16907;DHT22;8570;52.380;4.654;2022-07-29T02:20:07;16.80;99.30
16907;DHT22;8570;52.380;4.654;2022-07-29T02:25:11;16.80;99.50
16907;DHT22;8570;52.380;4.654;2022-07-29T02:30:15;16.80;99.50
16907;DHT22;8570;52.380;4.654;2022-07-29T02:35:17;16.80;99.60
16907;DHT22;8570;52.380;4.654;2022-07-29T02:40:20;16.70;99.50
16907;DHT22;8570;52.380;4.654;2022-07-29T02:45:23;16.70;99.60
16907;DHT22;8570;52.380;4.654;2022-07-29T02:50:31;16.70;99.70
16907;DHT22;8570;52.380;4.654;2022-07-29T02:55:37;16.70;99.70
16907;DHT22;8570;52.380;4.654;2022-07-29T03:00:44;16.70;99.70
16907;DHT22;8570;52.380;4.654;2022-07-29T03:05:47;16.70;99.80
16907;DHT22;8570;52.380;4.654;2022-07-29T03:10:50;16.70;99.80
16907;DHT22;8570;52.380;4.654;2022-07-29T03:15:54;16.60;99.90
16907;DHT22;8570;52.380;4.654;2022-07-29T03:20:57;16.60;99.90
16907;DHT22;8570;52.380;4.654;2022-07-29T03:25:59;16.60;99.90
16907;DHT22;8570;52.380;4.654;2022-07-29T03:31:02;16.60;99.90
16907;DHT22;8570;52.380;4.654;2022-07-29T03:36:04;16.60;99.90
16907;DHT22;8570;52.380;4.654;2022-07-29T03:41:10;16.60;99.90
16907;DHT22;8570;52.380;4.654;2022-07-29T03:46:16;16.60;99.90
16907;DHT22;8570;52.380;4.654;2022-07-29T03:51:19;16.50;99.90
16907;DHT22;8570;52.380;4.654;2022-07-29T03:56:22;16.50;99.90
16907;DHT22;8570;52.380;4.654;2022-07-29T04:01:27;16.50;99.90
16907;DHT22;8570;52.380;4.654;2022-07-29T04:06:41;16.50;99.90
16907;DHT22;8570;52.380;4.654;2022-07-29T04:11:42;16.50;99.90
16907;DHT22;8570;52.380;4.654;2022-07-29T04:16:46;16.50;99.90
16907;DHT22;8570;52.380;4.654;2022-07-29T04:21:48;16.40;99.90
16907;DHT22;8570;52.380;4.654;2022-07-29T04:26:50;16.40;99.90
16907;DHT22;8570;52.380;4.654;2022-07-29T04:31:53;16.40;99.90
16907;DHT22;8570;52.380;4.654;2022-07-29T04:36:57;16.40;99.90
16907;DHT22;8570;52.380;4.654;2022-07-29T04:41:58;16.40;99.90
16907;DHT22;8570;52.380;4.654;2022-07-29T04:47:02;16.30;99.90
16907;DHT22;8570;52.380;4.654;2022-07-29T04:52:05;16.30;99.90
16907;DHT22;8570;52.380;4.654;2022-07-29T04:57:07;16.30;99.90
16907;DHT22;8570;52.380;4.654;2022-07-29T05:02:10;16.20;99.90
16907;DHT22;8570;52.380;4.654;2022-07-29T05:07:12;16.20;99.90
16907;DHT22;8570;52.380;4.654;2022-07-29T05:12:14;16.20;99.90
16907;DHT22;8570;52.380;4.654;2022-07-29T05:17:17;16.20;99.90
16907;DHT22;8570;52.380;4.654;2022-07-29T05:22:20;16.20;99.90
16907;DHT22;8570;52.380;4.654;2022-07-29T05:27:22;16.30;99.90
16907;DHT22;8570;52.380;4.654;2022-07-29T05:32:25;16.30;99.90
16907;DHT22;8570;52.380;4.654;2022-07-29T05:37:29;16.30;99.90
16907;DHT22;8570;52.380;4.654;2022-07-29T05:42:31;16.30;99.90
16907;DHT22;8570;52.380;4.654;2022-07-29T05:47:34;16.40;99.90
16907;DHT22;8570;52.380;4.654;2022-07-29T05:52:36;16.40;99.90
16907;DHT22;8570;52.380;4.654;2022-07-29T05:57:38;16.40;99.90
16907;DHT22;8570;52.380;4.654;2022-07-29T06:02:41;16.50;99.90
16907;DHT22;8570;52.380;4.654;2022-07-29T06:07:43;16.50;99.90
16907;DHT22;8570;52.380;4.654;2022-07-29T06:12:45;16.50;99.90
16907;DHT22;8570;52.380;4.654;2022-07-29T06:17:48;16.50;99.90
16907;DHT22;8570;52.380;4.654;2022-07-29T06:22:50;16.50;99.90
16907;DHT22;8570;52.380;4.654;2022-07-29T06:27:52;16.50;99.90
16907;DHT22;8570;52.380;4.654;2022-07-29T06:32:56;16.50;99.90
16907;DHT22;8570;52.380;4.654;2022-07-29T06:37:58;16.50;99.90
16907;DHT22;8570;52.380;4.654;2022-07-29T06:42:59;16.50;99.90
16907;DHT22;8570;52.380;4.654;2022-07-29T06:48:03;16.50;99.90
16907;DHT22;8570;52.380;4.654;2022-07-29T06:53:05;16.60;99.90
16907;DHT22;8570;52.380;4.654;2022-07-29T06:58:07;16.60;99.90
16907;DHT22;8570;52.380;4.654;2022-07-29T07:03:11;16.60;99.90
16907;DHT22;8570;52.380;4.654;2022-07-29T07:08:13;16.70;99.90
16907;DHT22;8570;52.380;4.654;2022-07-29T07:13:16;16.80;99.90
16907;DHT22;8570;52.380;4.654;2022-07-29T07:18:20;16.90;99.90
16907;DHT22;8570;52.380;4.654;2022-07-29T07:23:22;17.00;99.90
16907;DHT22;8570;52.380;4.654;2022-07-29T07:28:24;17.10;99.90
16907;DHT22;8570;52.380;4.654;2022-07-29T07:33:27;17.20;99.90
16907;DHT22;8570;52.380;4.654;2022-07-29T07:38:29;17.30;99.90
16907;DHT22;8570;52.380;4.654;2022-07-29T07:43:31;17.40;99.90
16907;DHT22;8570;52.380;4.654;2022-07-29T07:48:34;17.60;99.90
16907;DHT22;8570;52.380;4.654;2022-07-29T07:53:37;17.70;99.90
16907;DHT22;8570;52.380;4.654;2022-07-29T07:58:39;17.80;99.90
16907;DHT22;8570;52.380;4.654;2022-07-29T08:03:42;18.00;99.90
16907;DHT22;8570;52.380;4.654;2022-07-29T08:08:44;18.00;99.90
16907;DHT22;8570;52.380;4.654;2022-07-29T08:13:46;18.20;99.90
16907;DHT22;8570;52.380;4.654;2022-07-29T08:18:52;18.40;99.90
16907;DHT22;8570;52.380;4.654;2022-07-29T08:23:57;18.50;99.90
16907;DHT22;8570;52.380;4.654;2022-07-29T08:29:13;18.70;99.90
16907;DHT22;8570;52.380;4.654;2022-07-29T08:34:16;19.10;99.90
16907;DHT22;8570;52.380;4.654;2022-07-29T08:39:18;19.60;99.90
16907;DHT22;8570;52.380;4.654;2022-07-29T08:44:20;20.20;99.90
16907;DHT22;8570;52.380;4.654;2022-07-29T08:49:24;20.60;99.90
16907;DHT22;8570;52.380;4.654;2022-07-29T08:54:26;21.00;99.90
16907;DHT22;8570;52.380;4.654;2022-07-29T08:59:30;21.20;99.50
16907;DHT22;8570;52.380;4.654;2022-07-29T09:04:36;21.40;99.40
16907;DHT22;8570;52.380;4.654;2022-07-29T09:09:38;21.60;99.40
16907;DHT22;8570;52.380;4.654;2022-07-29T09:14:40;21.70;98.90
16907;DHT22;8570;52.380;4.654;2022-07-29T09:19:44;21.90;98.30
16907;DHT22;8570;52.380;4.654;2022-07-29T09:24:47;21.90;97.90
16907;DHT22;8570;52.380;4.654;2022-07-29T09:29:59;22.00;97.60
16907;DHT22;8570;52.380;4.654;2022-07-29T09:35:20;22.10;97.40
16907;DHT22;8570;52.380;4.654;2022-07-29T09:40:24;22.20;97.30
16907;DHT22;8570;52.380;4.654;2022-07-29T09:45:28;22.30;97.20
16907;DHT22;8570;52.380;4.654;2022-07-29T09:50:39;22.30;97.00
16907;DHT22;8570;52.380;4.654;2022-07-29T09:55:48;22.50;97.00
16907;DHT22;8570;52.380;4.654;2022-07-29T10:00:52;22.70;97.00
16907;DHT22;8570;52.380;4.654;2022-07-29T10:06:07;22.90;96.20
16907;DHT22;8570;52.380;4.654;2022-07-29T10:11:11;22.90;96.00
16907;DHT22;8570;52.380;4.654;2022-07-29T10:16:14;22.90;96.10
16907;DHT22;8570;52.380;4.654;2022-07-29T10:21:18;23.00;95.60
16907;DHT22;8570;52.380;4.654;2022-07-29T10:26:20;23.00;95.50
16907;DHT22;8570;52.380;4.654;2022-07-29T10:31:28;22.90;95.00
16907;DHT22;8570;52.380;4.654;2022-07-29T10:36:48;22.90;95.20
16907;DHT22;8570;52.380;4.654;2022-07-29T10:42:02;22.90;94.90
16907;DHT22;8570;52.380;4.654;2022-07-29T10:47:07;23.10;95.70
16907;DHT22;8570;52.380;4.654;2022-07-29T10:52:11;23.40;96.10
16907;DHT22;8570;52.380;4.654;2022-07-29T10:57:19;23.80;95.20
16907;DHT22;8570;52.380;4.654;2022-07-29T11:02:41;24.20;94.40
16907;DHT22;8570;52.380;4.654;2022-07-29T11:13:49;24.70;93.30
16907;DHT22;8570;52.380;4.654;2022-07-29T11:19:20;24.60;92.80
16907;DHT22;8570;52.380;4.654;2022-07-29T11:24:23;24.70;93.10
16907;DHT22;8570;52.380;4.654;2022-07-29T11:29:31;25.10;92.70
16907;DHT22;8570;52.380;4.654;2022-07-29T11:34:33;25.40;92.40
16907;DHT22;8570;52.380;4.654;2022-07-29T11:39:37;25.90;92.20
16907;DHT22;8570;52.380;4.654;2022-07-29T11:50:10;26.40;91.40
16907;DHT22;8570;52.380;4.654;2022-07-29T11:55:16;27.00;89.70
16907;DHT22;8570;52.380;4.654;2022-07-29T12:00:24;27.20;88.20
16907;DHT22;8570;52.380;4.654;2022-07-29T12:05:39;27.30;88.20
16907;DHT22;8570;52.380;4.654;2022-07-29T12:10:42;27.40;90.00
16907;DHT22;8570;52.380;4.654;2022-07-29T12:15:52;27.60;90.20
16907;DHT22;8570;52.380;4.654;2022-07-29T12:21:00;27.80;88.60
16907;DHT22;8570;52.380;4.654;2022-07-29T12:26:04;27.90;87.60
16907;DHT22;8570;52.380;4.654;2022-07-29T12:31:13;28.10;84.80
16907;DHT22;8570;52.380;4.654;2022-07-29T12:36:16;28.10;84.30
16907;DHT22;8570;52.380;4.654;2022-07-29T12:41:21;28.10;85.50
16907;DHT22;8570;52.380;4.654;2022-07-29T12:46:23;28.40;84.90
16907;DHT22;8570;52.380;4.654;2022-07-29T12:51:30;28.70;82.90
16907;DHT22;8570;52.380;4.654;2022-07-29T12:56:32;28.90;82.40
16907;DHT22;8570;52.380;4.654;2022-07-29T13:01:36;28.90;80.90
16907;DHT22;8570;52.380;4.654;2022-07-29T13:06:42;29.00;80.10
16907;DHT22;8570;52.380;4.654;2022-07-29T13:11:46;28.90;78.00
16907;DHT22;8570;52.380;4.654;2022-07-29T13:17:03;28.50;78.80
16907;DHT22;8570;52.380;4.654;2022-07-29T13:22:07;28.30;81.10
16907;DHT22;8570;52.380;4.654;2022-07-29T13:27:09;28.50;81.10
16907;DHT22;8570;52.380;4.654;2022-07-29T13:32:12;28.80;81.10
16907;DHT22;8570;52.380;4.654;2022-07-29T13:37:17;29.00;78.60
16907;DHT22;8570;52.380;4.654;2022-07-29T13:42:19;29.00;78.70
16907;DHT22;8570;52.380;4.654;2022-07-29T13:47:23;28.90;77.70
16907;DHT22;8570;52.380;4.654;2022-07-29T13:52:35;28.70;77.10
16907;DHT22;8570;52.380;4.654;2022-07-29T13:57:37;28.40;78.00
16907;DHT22;8570;52.380;4.654;2022-07-29T14:02:39;28.20;79.80
16907;DHT22;8570;52.380;4.654;2022-07-29T14:07:43;28.10;81.10
16907;DHT22;8570;52.380;4.654;2022-07-29T14:12:44;28.30;79.50
16907;DHT22;8570;52.380;4.654;2022-07-29T14:17:46;28.50;80.00
16907;DHT22;8570;52.380;4.654;2022-07-29T14:22:49;28.70;77.90
16907;DHT22;8570;52.380;4.654;2022-07-29T14:27:51;28.80;78.40
16907;DHT22;8570;52.380;4.654;2022-07-29T14:32:54;28.90;78.00
16907;DHT22;8570;52.380;4.654;2022-07-29T14:37:57;29.00;77.60
16907;DHT22;8570;52.380;4.654;2022-07-29T14:42:59;29.00;79.20
16907;DHT22;8570;52.380;4.654;2022-07-29T14:48:01;28.70;80.00
16907;DHT22;8570;52.380;4.654;2022-07-29T14:53:05;28.60;81.90
16907;DHT22;8570;52.380;4.654;2022-07-29T14:58:07;28.60;82.10
16907;DHT22;8570;52.380;4.654;2022-07-29T15:03:09;28.50;83.00
16907;DHT22;8570;52.380;4.654;2022-07-29T15:08:12;28.30;83.50
16907;DHT22;8570;52.380;4.654;2022-07-29T15:13:14;28.30;84.90
16907;DHT22;8570;52.380;4.654;2022-07-29T15:18:16;28.30;84.30
16907;DHT22;8570;52.380;4.654;2022-07-29T15:23:19;28.10;84.20
16907;DHT22;8570;52.380;4.654;2022-07-29T15:28:21;28.00;84.80
16907;DHT22;8570;52.380;4.654;2022-07-29T15:33:23;27.90;85.20
16907;DHT22;8570;52.380;4.654;2022-07-29T15:38:26;27.80;85.90
16907;DHT22;8570;52.380;4.654;2022-07-29T15:43:28;27.70;86.80
16907;DHT22;8570;52.380;4.654;2022-07-29T15:48:30;27.70;86.80
16907;DHT22;8570;52.380;4.654;2022-07-29T15:53:34;27.50;87.10
16907;DHT22;8570;52.380;4.654;2022-07-29T15:58:36;27.50;87.50
16907;DHT22;8570;52.380;4.654;2022-07-29T16:03:37;27.30;87.30
16907;DHT22;8570;52.380;4.654;2022-07-29T16:08:41;27.20;88.00
16907;DHT22;8570;52.380;4.654;2022-07-29T16:13:43;27.10;87.70
16907;DHT22;8570;52.380;4.654;2022-07-29T16:18:45;27.10;87.60
16907;DHT22;8570;52.380;4.654;2022-07-29T16:23:48;27.00;88.10
16907;DHT22;8570;52.380;4.654;2022-07-29T16:28:50;26.80;87.80
16907;DHT22;8570;52.380;4.654;2022-07-29T16:33:53;26.70;88.00
16907;DHT22;8570;52.380;4.654;2022-07-29T16:38:56;26.60;88.60
16907;DHT22;8570;52.380;4.654;2022-07-29T16:43:58;26.40;89.40
16907;DHT22;8570;52.380;4.654;2022-07-29T16:48:59;26.20;90.00
16907;DHT22;8570;52.380;4.654;2022-07-29T16:54:03;26.10;90.50
16907;DHT22;8570;52.380;4.654;2022-07-29T16:59:05;25.90;90.80
16907;DHT22;8570;52.380;4.654;2022-07-29T17:04:06;25.70;91.20
16907;DHT22;8570;52.380;4.654;2022-07-29T17:09:11;25.50;91.40
16907;DHT22;8570;52.380;4.654;2022-07-29T17:14:14;25.30;91.60
16907;DHT22;8570;52.380;4.654;2022-07-29T17:19:16;25.10;91.70
16907;DHT22;8570;52.380;4.654;2022-07-29T17:24:19;24.90;92.10
16907;DHT22;8570;52.380;4.654;2022-07-29T17:29:21;24.80;92.10
16907;DHT22;8570;52.380;4.654;2022-07-29T17:34:23;24.60;92.10
16907;DHT22;8570;52.380;4.654;2022-07-29T17:39:26;24.50;91.80
16907;DHT22;8570;52.380;4.654;2022-07-29T17:44:28;24.30;91.50
16907;DHT22;8570;52.380;4.654;2022-07-29T17:49:30;24.10;92.10
16907;DHT22;8570;52.380;4.654;2022-07-29T17:54:33;24.00;92.40
16907;DHT22;8570;52.380;4.654;2022-07-29T17:59:35;23.90;92.90
16907;DHT22;8570;52.380;4.654;2022-07-29T18:04:37;23.70;93.20
16907;DHT22;8570;52.380;4.654;2022-07-29T18:09:40;23.60;93.60
16907;DHT22;8570;52.380;4.654;2022-07-29T18:14:42;23.50;93.70
16907;DHT22;8570;52.380;4.654;2022-07-29T18:19:44;23.40;93.60
16907;DHT22;8570;52.380;4.654;2022-07-29T18:24:47;23.30;94.20
16907;DHT22;8570;52.380;4.654;2022-07-29T18:29:49;23.20;94.70
16907;DHT22;8570;52.380;4.654;2022-07-29T18:34:51;23.10;95.10
16907;DHT22;8570;52.380;4.654;2022-07-29T18:39:54;23.00;95.30
16907;DHT22;8570;52.380;4.654;2022-07-29T18:44:56;22.90;95.60
16907;DHT22;8570;52.380;4.654;2022-07-29T18:49:57;22.90;95.90
16907;DHT22;8570;52.380;4.654;2022-07-29T18:55:01;22.80;96.30
16907;DHT22;8570;52.380;4.654;2022-07-29T19:00:06;22.70;96.50
16907;DHT22;8570;52.380;4.654;2022-07-29T19:05:09;22.60;96.90
16907;DHT22;8570;52.380;4.654;2022-07-29T19:10:12;22.40;97.00
16907;DHT22;8570;52.380;4.654;2022-07-29T19:15:14;22.30;97.20
16907;DHT22;8570;52.380;4.654;2022-07-29T19:20:16;22.10;97.70
16907;DHT22;8570;52.380;4.654;2022-07-29T19:25:22;22.00;97.50
16907;DHT22;8570;52.380;4.654;2022-07-29T19:30:23;21.80;97.70
16907;DHT22;8570;52.380;4.654;2022-07-29T19:35:26;21.70;97.90
16907;DHT22;8570;52.380;4.654;2022-07-29T19:40:33;21.50;97.90
16907;DHT22;8570;52.380;4.654;2022-07-29T19:45:35;21.50;98.10
16907;DHT22;8570;52.380;4.654;2022-07-29T19:50:37;21.30;98.10
16907;DHT22;8570;52.380;4.654;2022-07-29T19:55:40;21.20;98.30
16907;DHT22;8570;52.380;4.654;2022-07-29T20:00:43;21.00;98.40
16907;DHT22;8570;52.380;4.654;2022-07-29T20:05:44;20.90;98.60
16907;DHT22;8570;52.380;4.654;2022-07-29T20:10:51;20.80;98.70
16907;DHT22;8570;52.380;4.654;2022-07-29T20:15:54;20.80;99.30
16907;DHT22;8570;52.380;4.654;2022-07-29T20:20:56;20.70;99.50
16907;DHT22;8570;52.380;4.654;2022-07-29T20:26:01;20.60;99.30
16907;DHT22;8570;52.380;4.654;2022-07-29T20:31:03;20.50;99.50
16907;DHT22;8570;52.380;4.654;2022-07-29T20:36:05;20.50;99.60
16907;DHT22;8570;52.380;4.654;2022-07-29T20:41:08;20.40;99.70
16907;DHT22;8570;52.380;4.654;2022-07-29T20:46:10;20.40;99.90
16907;DHT22;8570;52.380;4.654;2022-07-29T20:51:13;20.30;99.90
16907;DHT22;8570;52.380;4.654;2022-07-29T20:56:17;20.20;99.90
16907;DHT22;8570;52.380;4.654;2022-07-29T21:01:19;20.10;99.90
16907;DHT22;8570;52.380;4.654;2022-07-29T21:06:21;20.10;99.90
16907;DHT22;8570;52.380;4.654;2022-07-29T21:11:24;20.00;99.90
16907;DHT22;8570;52.380;4.654;2022-07-29T21:16:26;19.90;99.90
16907;DHT22;8570;52.380;4.654;2022-07-29T21:21:30;19.80;99.90
16907;DHT22;8570;52.380;4.654;2022-07-29T21:26:33;19.70;99.90
16907;DHT22;8570;52.380;4.654;2022-07-29T21:31:35;19.70;99.90
16907;DHT22;8570;52.380;4.654;2022-07-29T21:36:37;19.60;99.90
16907;DHT22;8570;52.380;4.654;2022-07-29T21:41:40;19.50;99.90
16907;DHT22;8570;52.380;4.654;2022-07-29T21:46:42;19.50;99.90
16907;DHT22;8570;52.380;4.654;2022-07-29T21:51:44;19.40;99.90
16907;DHT22;8570;52.380;4.654;2022-07-29T21:56:48;19.40;99.90
16907;DHT22;8570;52.380;4.654;2022-07-29T22:01:50;19.30;99.90
16907;DHT22;8570;52.380;4.654;2022-07-29T22:06:52;19.20;99.90
16907;DHT22;8570;52.380;4.654;2022-07-29T22:11:55;19.20;99.90
16907;DHT22;8570;52.380;4.654;2022-07-29T22:16:57;19.10;99.90
16907;DHT22;8570;52.380;4.654;2022-07-29T22:21:59;19.10;99.90
16907;DHT22;8570;52.380;4.654;2022-07-29T22:27:03;19.00;99.90
16907;DHT22;8570;52.380;4.654;2022-07-29T22:32:05;18.90;99.90
16907;DHT22;8570;52.380;4.654;2022-07-29T22:37:07;18.90;99.90
16907;DHT22;8570;52.380;4.654;2022-07-29T22:42:10;18.80;99.90
16907;DHT22;8570;52.380;4.654;2022-07-29T22:47:12;18.80;99.90
16907;DHT22;8570;52.380;4.654;2022-07-29T22:52:14;18.70;99.90
16907;DHT22;8570;52.380;4.654;2022-07-29T22:57:17;18.70;99.90
16907;DHT22;8570;52.380;4.654;2022-07-29T23:02:19;18.60;99.90
16907;DHT22;8570;52.380;4.654;2022-07-29T23:07:21;18.60;99.90
16907;DHT22;8570;52.380;4.654;2022-07-29T23:12:25;18.50;99.90
16907;DHT22;8570;52.380;4.654;2022-07-29T23:17:27;18.50;99.90
16907;DHT22;8570;52.380;4.654;2022-07-29T23:22:29;18.40;99.90
16907;DHT22;8570;52.380;4.654;2022-07-29T23:27:32;18.40;99.90
16907;DHT22;8570;52.380;4.654;2022-07-29T23:32:34;18.40;99.90
16907;DHT22;8570;52.380;4.654;2022-07-29T23:37:36;18.40;99.90
16907;DHT22;8570;52.380;4.654;2022-07-29T23:42:39;18.30;99.90
16907;DHT22;8570;52.380;4.654;2022-07-29T23:47:42;18.30;99.90
16907;DHT22;8570;52.380;4.654;2022-07-29T23:52:44;18.20;99.90
16907;DHT22;8570;52.380;4.654;2022-07-29T23:57:47;18.20;99.90
